createdAt,value
2019-03-26T00:02:06.244Z,4.53
2019-03-26T00:04:39.031Z,4.58
2019-03-26T00:07:10.244Z,4.58
2019-03-26T00:09:41.383Z,4.61
2019-03-26T00:12:12.594Z,4.60
2019-03-26T00:14:46.731Z,4.57
2019-03-26T00:17:17.983Z,4.55
2019-03-26T00:19:49.288Z,4.54
2019-03-26T00:22:22.180Z,4.58
2019-03-26T00:24:52.963Z,4.59
2019-03-26T00:27:24.126Z,4.56
2019-03-26T00:29:57.199Z,4.55
2019-03-26T00:32:28.270Z,4.55
2019-03-26T00:34:59.280Z,4.50
2019-03-26T00:37:32.212Z,4.52
2019-03-26T00:40:05.936Z,4.53
2019-03-26T00:42:37.837Z,4.54
2019-03-26T00:45:09.076Z,4.56
2019-03-26T00:47:43.802Z,4.53
2019-03-26T00:50:35.547Z,4.53
2019-03-26T00:53:06.603Z,4.55
2019-03-26T00:55:38.169Z,4.55
2019-03-26T00:58:09.143Z,4.54
2019-03-26T01:00:46.017Z,4.46
2019-03-26T01:03:20.107Z,4.54
2019-03-26T01:05:52.565Z,4.54
2019-03-26T01:08:23.832Z,4.52
2019-03-26T01:10:54.715Z,4.52
2019-03-26T01:13:25.782Z,4.48
2019-03-26T01:15:57.044Z,4.48
2019-03-26T01:18:28.085Z,4.45
2019-03-26T01:20:59.209Z,4.47
2019-03-26T01:23:30.018Z,4.50
2019-03-26T01:26:01.591Z,4.52
2019-03-26T01:28:32.651Z,4.56
2019-03-26T01:31:04.878Z,4.61
2019-03-26T01:33:36.996Z,4.56
2019-03-26T01:36:07.675Z,4.56
2019-03-26T01:38:39.100Z,4.54
2019-03-26T01:41:10.209Z,4.56
2019-03-26T01:43:41.267Z,4.56
2019-03-26T01:46:12.215Z,4.52
2019-03-26T01:48:43.279Z,4.53
2019-03-26T01:51:14.399Z,4.52
2019-03-26T01:53:45.555Z,4.48
2019-03-26T01:56:18.601Z,4.43
2019-03-26T01:58:52.048Z,4.50
2019-03-26T02:01:24.351Z,4.43
2019-03-26T02:03:55.284Z,4.48
2019-03-26T02:06:26.227Z,4.44
2019-03-26T02:08:57.196Z,4.47
2019-03-26T02:11:28.503Z,4.47
2019-03-26T02:14:00.046Z,4.45
2019-03-26T02:16:34.624Z,4.38
2019-03-26T02:19:05.839Z,4.32
2019-03-26T02:21:37.011Z,4.25
2019-03-26T02:24:08.420Z,4.17
2019-03-26T02:26:44.486Z,4.07
2019-03-26T02:29:15.539Z,4.01
2019-03-26T02:31:46.590Z,3.94
2019-03-26T02:34:17.849Z,3.89
2019-03-26T02:36:48.942Z,3.84
2019-03-26T02:39:20.130Z,3.75
2019-03-26T02:41:51.351Z,3.70
2019-03-26T02:44:22.595Z,3.68
2019-03-26T02:46:56.606Z,3.69
2019-03-26T02:49:27.905Z,3.69
2019-03-26T02:52:00.939Z,3.70
2019-03-26T02:54:32.061Z,3.68
2019-03-26T02:57:03.159Z,3.63
2019-03-26T02:59:40.240Z,3.65
2019-03-26T03:02:11.463Z,3.72
2019-03-26T03:04:42.699Z,3.76
2019-03-26T03:07:15.828Z,3.77
2019-03-26T03:09:46.917Z,3.75
2019-03-26T03:12:18.074Z,3.79
2019-03-26T03:14:49.198Z,3.83
2019-03-26T03:17:20.328Z,3.85
2019-03-26T03:19:51.722Z,3.85
2019-03-26T03:22:23.851Z,3.81
2019-03-26T03:24:55.165Z,3.80
2019-03-26T03:27:26.295Z,3.76
2019-03-26T03:29:57.501Z,3.72
2019-03-26T03:32:28.504Z,3.68
2019-03-26T03:34:59.561Z,3.66
2019-03-26T03:37:30.906Z,3.57
2019-03-26T03:40:03.122Z,3.54
2019-03-26T03:42:36.182Z,3.51
2019-03-26T03:45:10.287Z,3.50
2019-03-26T03:47:43.733Z,3.51
2019-03-26T03:50:14.945Z,3.55
2019-03-26T03:52:46.150Z,3.52
2019-03-26T03:55:17.216Z,3.55
2019-03-26T03:57:52.802Z,3.53
2019-03-26T04:00:41.767Z,3.54
2019-03-26T04:03:15.660Z,3.56
2019-03-26T04:05:46.839Z,3.55
2019-03-26T04:08:18.039Z,3.55
2019-03-26T04:10:49.213Z,3.52
2019-03-26T04:13:20.601Z,3.44
2019-03-26T04:15:53.802Z,3.46
2019-03-26T04:18:24.989Z,3.44
2019-03-26T04:20:56.265Z,3.43
2019-03-26T04:23:28.771Z,3.49
2019-03-26T04:25:59.643Z,3.52
2019-03-26T04:28:30.854Z,3.54
2019-03-26T04:31:01.786Z,3.58
2019-03-26T04:33:34.086Z,3.57
2019-03-26T04:36:05.340Z,3.56
2019-03-26T04:38:36.539Z,3.58
2019-03-26T04:41:07.993Z,3.57
2019-03-26T04:43:39.698Z,3.59
2019-03-26T04:46:11.112Z,3.60
2019-03-26T04:48:42.022Z,3.63
2019-03-26T04:51:13.025Z,3.63
2019-03-26T04:53:46.116Z,3.66
2019-03-26T04:56:18.997Z,3.68
2019-03-26T04:58:50.134Z,3.71
2019-03-26T05:01:21.819Z,3.73
2019-03-26T05:03:52.998Z,3.74
2019-03-26T05:06:37.212Z,3.75
2019-03-26T05:08:57.166Z,3.77
2019-03-26T05:11:30.055Z,3.79
2019-03-26T05:14:01.325Z,3.79
2019-03-26T05:16:34.046Z,3.79
2019-03-26T05:19:05.466Z,3.79
2019-03-26T05:21:36.750Z,3.80
2019-03-26T05:24:09.682Z,3.80
2019-03-26T05:26:41.173Z,3.80
2019-03-26T05:29:14.205Z,3.79
2019-03-26T05:31:46.800Z,3.82
2019-03-26T05:34:17.719Z,3.82
2019-03-26T05:36:51.440Z,3.87
2019-03-26T05:39:21.939Z,3.88
2019-03-26T05:41:54.399Z,3.88
2019-03-26T05:44:25.938Z,3.88
2019-03-26T05:46:57.255Z,3.89
2019-03-26T05:49:31.574Z,3.92
2019-03-26T05:52:02.639Z,3.97
2019-03-26T05:54:35.709Z,3.92
2019-03-26T05:57:08.630Z,3.87
2019-03-26T05:59:39.815Z,3.82
2019-03-26T06:02:15.166Z,3.80
2019-03-26T06:04:44.294Z,3.80
2019-03-26T06:07:17.254Z,3.82
2019-03-26T06:09:48.306Z,3.92
2019-03-26T06:12:19.556Z,4.08
2019-03-26T06:14:50.815Z,4.21
2019-03-26T06:17:22.278Z,4.28
2019-03-26T06:19:55.251Z,4.38
2019-03-26T06:22:28.359Z,4.46
2019-03-26T06:25:01.412Z,4.54
2019-03-26T06:27:32.726Z,4.59
2019-03-26T06:30:03.884Z,4.62
2019-03-26T06:32:36.219Z,4.64
2019-03-26T06:35:08.155Z,4.62
2019-03-26T06:37:41.147Z,4.63
2019-03-26T06:40:13.361Z,4.69
2019-03-26T06:42:44.484Z,4.75
2019-03-26T06:45:16.013Z,4.82
2019-03-26T06:47:47.053Z,4.93
2019-03-26T06:50:19.792Z,5.04
2019-03-26T06:52:54.311Z,5.12
2019-03-26T06:55:27.288Z,5.19
2019-03-26T06:58:00.225Z,5.29
2019-03-26T07:00:32.413Z,5.33
2019-03-26T07:03:04.765Z,5.37
2019-03-26T07:05:37.876Z,5.42
2019-03-26T07:08:10.807Z,5.48
2019-03-26T07:10:42.058Z,5.48
2019-03-26T07:13:13.322Z,5.42
2019-03-26T07:15:44.672Z,5.34
2019-03-26T07:18:15.931Z,5.39
2019-03-26T07:20:48.189Z,5.53
2019-03-26T07:23:21.023Z,5.50
2019-03-26T07:25:52.516Z,5.63
2019-03-26T07:28:24.488Z,5.71
2019-03-26T07:30:55.476Z,5.79
2019-03-26T07:33:27.912Z,5.79
2019-03-26T07:35:59.041Z,5.75
2019-03-26T07:38:30.152Z,5.73
2019-03-26T07:41:01.274Z,5.60
2019-03-26T07:43:33.659Z,5.37
2019-03-26T07:46:04.794Z,5.19
2019-03-26T07:48:35.885Z,5.30
2019-03-26T07:51:06.937Z,5.39
2019-03-26T07:53:39.243Z,5.60
2019-03-26T07:56:12.028Z,5.61
2019-03-26T07:58:47.076Z,5.74
2019-03-26T08:01:18.242Z,5.83
2019-03-26T08:03:51.170Z,5.84
2019-03-26T08:06:22.481Z,5.89
2019-03-26T08:08:54.027Z,5.88
2019-03-26T08:11:25.183Z,5.93
2019-03-26T08:13:56.321Z,5.84
2019-03-26T08:16:27.946Z,5.82
2019-03-26T08:18:59.474Z,5.84
2019-03-26T08:21:32.480Z,5.91
2019-03-26T08:24:03.773Z,6.01
2019-03-26T08:26:35.119Z,6.02
2019-03-26T08:29:06.328Z,6.10
2019-03-26T08:31:38.504Z,6.12
2019-03-26T08:34:09.615Z,6.02
2019-03-26T08:36:41.708Z,5.98
2019-03-26T08:39:13.042Z,5.99
2019-03-26T08:41:44.271Z,6.02
2019-03-26T08:44:15.403Z,6.00
2019-03-26T08:46:47.096Z,6.08
2019-03-26T08:49:18.530Z,6.17
2019-03-26T08:51:49.755Z,6.20
2019-03-26T08:54:20.873Z,6.34
2019-03-26T08:56:52.293Z,6.48
2019-03-26T08:59:24.006Z,6.68
2019-03-26T09:01:55.189Z,6.90
2019-03-26T09:04:28.190Z,7.00
2019-03-26T09:06:59.444Z,6.95
2019-03-26T09:09:32.153Z,7.09
2019-03-26T09:12:03.756Z,7.20
2019-03-26T09:14:35.071Z,7.39
2019-03-26T09:17:10.881Z,7.28
2019-03-26T09:19:42.167Z,7.22
2019-03-26T09:22:15.144Z,7.14
2019-03-26T09:24:46.445Z,7.59
2019-03-26T09:27:17.763Z,8.02
2019-03-26T09:29:49.833Z,8.30
2019-03-26T09:32:21.272Z,8.40
2019-03-26T09:34:52.563Z,8.41
2019-03-26T09:37:23.630Z,8.47
2019-03-26T09:39:55.339Z,8.49
2019-03-26T09:42:26.706Z,8.72
2019-03-26T09:44:58.666Z,8.86
2019-03-26T09:47:29.965Z,8.91
2019-03-26T09:50:01.248Z,8.97
2019-03-26T09:52:34.407Z,8.58
2019-03-26T09:55:07.723Z,8.64
2019-03-26T09:57:38.757Z,8.76
2019-03-26T10:00:10.149Z,8.72
2019-03-26T10:02:43.325Z,8.48
2019-03-26T10:05:14.915Z,8.66
2019-03-26T10:07:46.318Z,8.57
2019-03-26T10:10:19.686Z,8.67
2019-03-26T10:12:50.776Z,8.59
2019-03-26T10:15:24.656Z,8.94
2019-03-26T10:17:57.682Z,8.78
2019-03-26T10:20:29.122Z,8.88
2019-03-26T10:23:00.279Z,9.24
2019-03-26T10:25:31.638Z,9.56
2019-03-26T10:28:03.445Z,10.03
2019-03-26T10:30:43.250Z,10.00
2019-03-26T10:33:14.437Z,10.44
2019-03-26T10:35:47.364Z,10.83
2019-03-26T10:38:18.900Z,11.83
2019-03-26T10:40:52.026Z,13.16
2019-03-26T10:43:23.402Z,14.28
2019-03-26T10:45:59.601Z,14.69
2019-03-26T10:48:31.953Z,16.60
2019-03-26T10:51:03.420Z,18.41
2019-03-26T10:53:34.482Z,19.89
2019-03-26T10:56:05.954Z,19.73
2019-03-26T10:58:37.294Z,17.52
2019-03-26T11:01:09.002Z,16.46
2019-03-26T11:03:40.417Z,15.53
2019-03-26T11:06:11.847Z,13.79
2019-03-26T11:08:45.218Z,13.51
2019-03-26T11:11:16.863Z,12.89
2019-03-26T11:13:50.064Z,13.12
2019-03-26T11:16:21.239Z,13.50
2019-03-26T11:18:52.535Z,13.40
2019-03-26T11:21:24.738Z,13.39
2019-03-26T11:23:56.432Z,12.43
2019-03-26T11:26:30.362Z,12.19
2019-03-26T11:29:02.694Z,12.31
2019-03-26T11:31:35.886Z,11.64
2019-03-26T11:34:10.873Z,11.80
2019-03-26T11:36:43.880Z,11.85
2019-03-26T11:39:15.142Z,12.01
2019-03-26T11:41:46.396Z,12.40
2019-03-26T11:44:17.533Z,13.31
2019-03-26T11:46:50.707Z,16.05
2019-03-26T11:49:21.944Z,18.60
2019-03-26T11:51:54.841Z,19.32
2019-03-26T11:54:26.211Z,19.79
2019-03-26T11:56:57.407Z,18.41
2019-03-26T11:59:30.495Z,17.69
2019-03-26T12:02:01.806Z,17.34
2019-03-26T12:04:33.150Z,16.79
2019-03-26T12:07:04.332Z,16.12
2019-03-26T12:09:45.666Z,15.71
2019-03-26T12:12:09.215Z,14.33
2019-03-26T12:14:42.696Z,13.33
2019-03-26T12:17:15.112Z,12.81
2019-03-26T12:19:46.401Z,13.00
2019-03-26T12:22:17.750Z,12.49
2019-03-26T12:24:48.995Z,11.90
2019-03-26T12:27:20.118Z,12.10
2019-03-26T12:29:51.433Z,11.95
2019-03-26T12:32:22.600Z,11.68
2019-03-26T12:34:55.615Z,11.71
2019-03-26T12:37:26.997Z,11.76
2019-03-26T12:39:59.637Z,12.24
2019-03-26T12:42:31.262Z,12.19
2019-03-26T12:45:06.756Z,12.96
2019-03-26T12:47:38.231Z,14.85
2019-03-26T12:50:09.936Z,15.48
2019-03-26T12:52:41.066Z,17.94
2019-03-26T12:55:12.252Z,20.26
2019-03-26T12:57:43.261Z,22.07
2019-03-26T13:00:14.461Z,22.36
2019-03-26T13:02:51.262Z,22.44
2019-03-26T13:05:24.322Z,22.22
2019-03-26T13:07:57.469Z,22.90
2019-03-26T13:10:29.075Z,23.38
2019-03-26T13:13:00.680Z,25.47
2019-03-26T13:15:33.033Z,26.21
2019-03-26T13:18:04.217Z,24.38
2019-03-26T13:20:37.157Z,21.90
2019-03-26T13:23:08.404Z,20.00
2019-03-26T13:25:39.461Z,18.60
2019-03-26T13:28:10.734Z,17.55
2019-03-26T13:30:43.822Z,15.87
2019-03-26T13:33:15.323Z,15.93
2019-03-26T13:35:47.502Z,16.13
2019-03-26T13:38:18.652Z,14.93
2019-03-26T13:40:49.629Z,15.49
2019-03-26T13:43:22.496Z,15.71
2019-03-26T13:45:53.706Z,15.29
2019-03-26T13:48:24.965Z,14.20
2019-03-26T13:50:56.022Z,14.20
2019-03-26T13:53:27.317Z,15.61
2019-03-26T13:55:58.420Z,17.05
2019-03-26T13:58:29.752Z,16.25
2019-03-26T14:01:02.850Z,16.80
2019-03-26T14:03:35.406Z,17.10
2019-03-26T14:06:07.100Z,17.40
2019-03-26T14:08:40.021Z,17.07
2019-03-26T14:11:11.477Z,16.82
2019-03-26T14:13:44.623Z,17.08
2019-03-26T14:16:17.542Z,15.86
2019-03-26T14:18:48.953Z,16.09
2019-03-26T14:21:20.211Z,16.02
2019-03-26T14:23:53.151Z,15.32
2019-03-26T14:26:26.654Z,15.37
2019-03-26T14:28:57.719Z,15.07
2019-03-26T14:31:29.252Z,15.12
2019-03-26T14:34:01.053Z,14.60
2019-03-26T14:36:32.304Z,13.71
2019-03-26T14:39:05.837Z,14.23
2019-03-26T14:41:38.651Z,13.94
2019-03-26T14:44:14.423Z,14.13
2019-03-26T14:46:51.385Z,14.24
2019-03-26T14:49:27.649Z,14.22
2019-03-26T14:51:58.944Z,13.93
2019-03-26T14:54:32.033Z,13.61
2019-03-26T14:57:03.147Z,13.48
2019-03-26T14:59:34.428Z,13.27
2019-03-26T15:02:07.589Z,12.99
2019-03-26T15:04:39.293Z,13.17
2019-03-26T15:07:12.474Z,13.07
2019-03-26T15:09:44.612Z,12.97
2019-03-26T15:12:18.377Z,12.99
2019-03-26T15:14:51.533Z,12.94
2019-03-26T15:17:23.784Z,12.89
2019-03-26T15:19:55.409Z,12.75
2019-03-26T15:22:27.414Z,12.76
2019-03-26T15:24:59.570Z,12.67
2019-03-26T15:27:30.927Z,12.40
2019-03-26T15:30:06.882Z,12.50
2019-03-26T15:32:38.138Z,12.53
2019-03-26T15:35:09.953Z,12.44
2019-03-26T15:37:43.031Z,12.39
2019-03-26T15:40:17.395Z,12.22
2019-03-26T15:42:49.062Z,11.99
2019-03-26T15:45:20.780Z,11.96
2019-03-26T15:47:52.398Z,12.01
2019-03-26T15:50:42.177Z,12.07
2019-03-26T15:53:14.659Z,11.84
2019-03-26T15:55:46.464Z,11.69
2019-03-26T15:58:18.113Z,11.70
2019-03-26T16:00:49.783Z,11.48
2019-03-26T16:03:22.618Z,11.30
2019-03-26T16:05:57.233Z,11.27
2019-03-26T16:08:29.127Z,11.09
2019-03-26T16:11:00.606Z,10.99
2019-03-26T16:13:35.572Z,10.65
2019-03-26T16:16:05.858Z,10.46
2019-03-26T16:18:48.565Z,10.45
2019-03-26T16:21:19.914Z,10.34
2019-03-26T16:23:51.405Z,10.38
2019-03-26T16:26:23.242Z,10.42
2019-03-26T16:28:56.318Z,10.40
2019-03-26T16:31:29.677Z,10.27
2019-03-26T16:34:01.601Z,9.92
2019-03-26T16:36:32.749Z,10.02
2019-03-26T16:39:05.064Z,9.94
2019-03-26T16:41:48.457Z,9.89
2019-03-26T16:44:11.068Z,9.81
2019-03-26T16:46:44.183Z,9.80
2019-03-26T16:49:16.717Z,9.72
2019-03-26T16:51:47.949Z,9.63
2019-03-26T16:54:19.061Z,9.46
2019-03-26T16:56:56.057Z,9.39
2019-03-26T16:59:29.127Z,9.21
2019-03-26T17:02:00.377Z,9.15
2019-03-26T17:04:31.643Z,8.83
2019-03-26T17:07:03.489Z,8.88
2019-03-26T17:09:36.579Z,8.71
2019-03-26T17:12:09.439Z,8.49
2019-03-26T17:14:40.787Z,8.28
2019-03-26T17:17:12.228Z,8.29
2019-03-26T17:19:43.532Z,8.24
2019-03-26T17:22:16.049Z,8.03
2019-03-26T17:24:47.483Z,7.97
2019-03-26T17:27:20.319Z,7.90
2019-03-26T17:29:51.751Z,7.70
2019-03-26T17:32:23.074Z,7.70
2019-03-26T17:34:54.853Z,7.48
2019-03-26T17:37:26.568Z,7.52
2019-03-26T17:39:57.750Z,7.41
2019-03-26T17:42:28.977Z,7.33
2019-03-26T17:45:00.757Z,7.19
2019-03-26T17:47:33.275Z,7.13
2019-03-26T17:50:05.113Z,7.06
2019-03-26T17:52:36.835Z,7.00
2019-03-26T17:55:09.069Z,6.86
2019-03-26T17:57:40.580Z,6.73
2019-03-26T18:00:16.521Z,6.67
2019-03-26T18:02:49.549Z,6.66
2019-03-26T18:05:28.473Z,6.56
2019-03-26T18:07:59.758Z,6.52
2019-03-26T18:10:32.976Z,6.49
2019-03-26T18:13:04.509Z,6.52
2019-03-26T18:15:36.338Z,6.57
2019-03-26T18:18:08.341Z,6.54
2019-03-26T18:20:41.798Z,6.51
2019-03-26T18:23:13.016Z,6.53
2019-03-26T18:25:44.706Z,6.52
2019-03-26T18:28:16.013Z,6.42
2019-03-26T18:30:48.905Z,6.38
2019-03-26T18:33:21.330Z,6.34
2019-03-26T18:35:54.569Z,6.30
2019-03-26T18:38:25.900Z,6.25
2019-03-26T18:40:57.059Z,6.14
2019-03-26T18:43:28.391Z,6.15
2019-03-26T18:46:00.078Z,6.13
2019-03-26T18:48:31.584Z,6.17
2019-03-26T18:51:03.160Z,6.17
2019-03-26T18:53:34.363Z,6.00
2019-03-26T18:56:08.433Z,6.05
2019-03-26T18:58:40.024Z,5.98
2019-03-26T19:01:12.415Z,5.91
2019-03-26T19:03:44.253Z,5.97
2019-03-26T19:06:17.390Z,6.05
2019-03-26T19:08:50.399Z,6.12
2019-03-26T19:11:23.444Z,6.09
2019-03-26T19:13:56.391Z,6.02
2019-03-26T19:16:27.845Z,5.92
2019-03-26T19:19:00.873Z,5.97
2019-03-26T19:21:34.073Z,5.93
2019-03-26T19:24:10.013Z,5.98
2019-03-26T19:26:43.079Z,5.98
2019-03-26T19:29:14.628Z,5.99
2019-03-26T19:31:46.956Z,5.92
2019-03-26T19:34:18.013Z,5.90
2019-03-26T19:36:50.244Z,5.87
2019-03-26T19:39:21.904Z,5.89
2019-03-26T19:41:53.923Z,5.89
2019-03-26T19:44:25.468Z,5.84
2019-03-26T19:46:56.891Z,5.81
2019-03-26T19:49:28.340Z,5.83
2019-03-26T19:52:00.256Z,5.63
2019-03-26T19:54:31.403Z,5.68
2019-03-26T19:57:03.582Z,5.72
2019-03-26T19:59:34.681Z,5.75
2019-03-26T20:02:07.613Z,5.79
2019-03-26T20:04:38.869Z,5.81
2019-03-26T20:07:10.222Z,5.79
2019-03-26T20:09:41.866Z,5.78
2019-03-26T20:12:14.758Z,5.75
2019-03-26T20:14:49.149Z,5.71
2019-03-26T20:17:22.381Z,5.69
2019-03-26T20:19:54.202Z,5.67
2019-03-26T20:22:27.888Z,5.64
2019-03-26T20:25:01.639Z,5.63
2019-03-26T20:27:36.154Z,5.63
2019-03-26T20:30:11.559Z,5.64
2019-03-26T20:32:43.231Z,5.63
2019-03-26T20:35:15.636Z,5.64
2019-03-26T20:37:48.148Z,5.61
2019-03-26T20:40:19.720Z,5.62
2019-03-26T20:42:51.291Z,5.56
2019-03-26T20:45:22.825Z,5.57
2019-03-26T20:47:54.627Z,5.55
2019-03-26T20:50:27.081Z,5.53
2019-03-26T20:52:58.598Z,5.52
2019-03-26T20:55:34.662Z,5.50
2019-03-26T20:58:06.860Z,5.56
2019-03-26T21:00:47.283Z,5.57
2019-03-26T21:03:18.688Z,5.55
2019-03-26T21:05:50.096Z,5.53
2019-03-26T21:08:22.865Z,5.51
2019-03-26T21:10:55.924Z,5.51
2019-03-26T21:13:27.211Z,5.51
2019-03-26T21:15:58.383Z,5.50
2019-03-26T21:18:31.488Z,5.50
2019-03-26T21:21:04.549Z,5.51
2019-03-26T21:23:37.421Z,5.52
2019-03-26T21:26:08.808Z,5.52
2019-03-26T21:28:40.138Z,5.50
2019-03-26T21:31:11.018Z,5.46
2019-03-26T21:33:42.332Z,5.45
2019-03-26T21:36:13.485Z,5.46
2019-03-26T21:38:46.538Z,5.46
2019-03-26T21:41:17.856Z,5.48
2019-03-26T21:44:03.326Z,5.47
2019-03-26T21:46:23.989Z,5.45
2019-03-26T21:48:54.991Z,5.38
2019-03-26T21:51:26.468Z,5.35
2019-03-26T21:53:57.713Z,5.38
2019-03-26T21:56:29.018Z,5.42
2019-03-26T21:59:00.292Z,5.40
2019-03-26T22:01:31.490Z,5.40
2019-03-26T22:04:02.649Z,5.41
2019-03-26T22:06:34.115Z,5.37
2019-03-26T22:09:07.600Z,5.39
2019-03-26T22:11:49.653Z,5.42
2019-03-26T22:14:18.220Z,5.41
2019-03-26T22:16:46.800Z,5.38
2019-03-26T22:19:27.801Z,5.36
2019-03-26T22:21:51.040Z,5.36
2019-03-26T22:24:22.283Z,5.36
2019-03-26T22:26:53.627Z,5.35
2019-03-26T22:29:24.873Z,5.33
2019-03-26T22:31:55.947Z,5.32
2019-03-26T22:34:28.817Z,5.31
2019-03-26T22:37:00.190Z,5.29
2019-03-26T22:39:31.586Z,5.27
2019-03-26T22:42:05.638Z,5.29
2019-03-26T22:44:38.969Z,5.30
2019-03-26T22:47:10.457Z,5.28
2019-03-26T22:49:41.681Z,5.28
2019-03-26T22:52:13.072Z,5.31
2019-03-26T22:54:44.416Z,5.33
2019-03-26T22:57:15.669Z,5.27
2019-03-26T22:59:46.764Z,5.24
2019-03-26T23:02:17.919Z,5.20
2019-03-26T23:04:50.735Z,5.19
2019-03-26T23:07:22.050Z,5.22
2019-03-26T23:09:54.229Z,5.23
2019-03-26T23:12:27.186Z,5.23
2019-03-26T23:14:58.388Z,5.23
2019-03-26T23:17:29.740Z,5.21
2019-03-26T23:20:01.188Z,5.21
2019-03-26T23:22:32.947Z,5.21
2019-03-26T23:25:06.056Z,5.16
2019-03-26T23:27:37.307Z,5.15
2019-03-26T23:30:09.199Z,5.15
2019-03-26T23:32:40.263Z,5.13
2019-03-26T23:35:11.737Z,5.12
2019-03-26T23:37:45.026Z,5.10
2019-03-26T23:40:17.998Z,5.08
2019-03-26T23:42:51.039Z,5.08
2019-03-26T23:45:22.265Z,5.07
2019-03-26T23:47:53.764Z,5.08
2019-03-26T23:50:24.918Z,5.06
2019-03-26T23:52:55.947Z,5.06
2019-03-26T23:55:28.752Z,5.06
2019-03-26T23:58:00.318Z,5.07
